createdAt,value
2022-08-17T00:01:55.878Z,99203.63
2022-08-17T00:04:50.476Z,99204.53
2022-08-17T00:07:38.715Z,99192.91
2022-08-17T00:10:26.818Z,99188.41
2022-08-17T00:13:17.547Z,99193.69
2022-08-17T00:16:08.878Z,99189.50
2022-08-17T00:19:07.062Z,99195.59
2022-08-17T00:22:31.815Z,99196.81
2022-08-17T00:25:13.205Z,99198.25
2022-08-17T00:28:02.028Z,99187.53
2022-08-17T00:30:52.868Z,99188.94
2022-08-17T00:33:43.885Z,99195.47
2022-08-17T00:36:31.971Z,99193.09
2022-08-17T00:39:21.478Z,99191.38
2022-08-17T00:42:14.697Z,99200.72
2022-08-17T00:45:04.397Z,99185.50
2022-08-17T00:47:52.467Z,99194.69
2022-08-17T00:50:44.699Z,99188.91
2022-08-17T00:53:34.662Z,99181.00
2022-08-17T00:56:30.674Z,99188.28
2022-08-17T00:59:21.948Z,99184.25
2022-08-17T01:02:13.435Z,99178.81
2022-08-17T01:05:01.772Z,99178.06
2022-08-17T01:07:51.176Z,99180.38
2022-08-17T01:10:59.917Z,99180.69
2022-08-17T01:13:51.950Z,99178.81
2022-08-17T01:16:40.393Z,99180.19
2022-08-17T01:19:31.537Z,99177.91
2022-08-17T01:22:22.675Z,99161.16
2022-08-17T01:25:12.680Z,99168.47
2022-08-17T01:28:01.580Z,99183.66
2022-08-17T01:30:57.791Z,99174.19
2022-08-17T01:33:47.454Z,99171.25
2022-08-17T01:36:36.000Z,99169.25
2022-08-17T01:39:30.821Z,99182.13
2022-08-17T01:42:23.683Z,99102.63
2022-08-17T01:45:14.639Z,99175.59
2022-08-17T01:48:02.751Z,99172.78
2022-08-17T01:50:52.728Z,99175.00
2022-08-17T01:53:46.167Z,99171.25
2022-08-17T01:56:37.686Z,99173.72
2022-08-17T01:59:25.788Z,99168.94
2022-08-17T02:02:30.996Z,99171.41
2022-08-17T02:05:19.948Z,99170.63
2022-08-17T02:08:08.244Z,99164.56
2022-08-17T02:11:11.705Z,99161.00
2022-08-17T02:14:03.383Z,99161.75
2022-08-17T02:16:52.475Z,99163.16
2022-08-17T02:19:40.430Z,99164.53
2022-08-17T02:22:29.775Z,99158.63
2022-08-17T02:25:20.909Z,99166.53
2022-08-17T02:28:12.458Z,99168.88
2022-08-17T02:31:07.743Z,99169.50
2022-08-17T02:34:04.235Z,99165.63
2022-08-17T02:36:54.060Z,99171.56
2022-08-17T02:39:42.107Z,99177.94
2022-08-17T02:42:33.765Z,99182.16
2022-08-17T02:45:24.639Z,99187.22
2022-08-17T02:48:13.966Z,99184.72
2022-08-17T02:51:19.176Z,99185.00
2022-08-17T02:54:41.727Z,99195.50
2022-08-17T02:57:15.347Z,99193.44
2022-08-17T03:00:03.718Z,99188.25
2022-08-17T03:02:52.231Z,99191.59
2022-08-17T03:05:41.771Z,99196.94
2022-08-17T03:08:30.102Z,99197.78
2022-08-17T03:11:18.100Z,99196.34
2022-08-17T03:14:06.193Z,99195.16
2022-08-17T03:16:54.607Z,99191.28
2022-08-17T03:19:43.077Z,99185.66
2022-08-17T03:22:38.316Z,99185.34
2022-08-17T03:25:29.035Z,99189.22
2022-08-17T03:28:17.228Z,99181.31
2022-08-17T03:31:05.851Z,99183.88
2022-08-17T03:33:53.867Z,99178.22
2022-08-17T03:36:41.979Z,99179.69
2022-08-17T03:39:31.469Z,99175.50
2022-08-17T03:42:32.201Z,99165.06
2022-08-17T03:45:43.201Z,99173.84
2022-08-17T03:48:49.448Z,99172.81
2022-08-17T03:51:55.045Z,99170.03
2022-08-17T03:55:03.161Z,99178.28
2022-08-17T03:57:51.235Z,99171.34
2022-08-17T04:00:45.664Z,99150.41
2022-08-17T04:03:33.901Z,99168.31
2022-08-17T04:06:22.589Z,99173.91
2022-08-17T04:09:11.799Z,99163.06
2022-08-17T04:12:04.860Z,99163.19
2022-08-17T04:14:54.902Z,99167.34
2022-08-17T04:17:44.193Z,99154.91
2022-08-17T04:20:32.314Z,99156.66
2022-08-17T04:23:20.968Z,99158.72
2022-08-17T04:26:09.095Z,99155.91
2022-08-17T04:28:59.516Z,99167.41
2022-08-17T04:31:47.959Z,99190.03
2022-08-17T04:34:36.371Z,99225.34
2022-08-17T04:37:24.373Z,99255.66
2022-08-17T04:40:30.651Z,99277.63
2022-08-17T04:43:21.088Z,99272.19
2022-08-17T04:46:12.013Z,99277.25
2022-08-17T04:49:01.372Z,99281.69
2022-08-17T04:51:54.692Z,99268.22
2022-08-17T04:54:44.897Z,99294.31
2022-08-17T04:57:38.480Z,99284.81
2022-08-17T05:00:28.769Z,99288.72
2022-08-17T05:03:18.148Z,99290.91
2022-08-17T05:06:06.610Z,99294.06
2022-08-17T05:08:55.689Z,99302.91
2022-08-17T05:11:45.049Z,99282.50
2022-08-17T05:14:33.974Z,99272.63
2022-08-17T05:17:22.094Z,99288.69
2022-08-17T05:20:12.241Z,99285.78
2022-08-17T05:23:04.491Z,99286.44
2022-08-17T05:25:56.288Z,99289.09
2022-08-17T05:28:44.372Z,99281.81
2022-08-17T05:31:34.056Z,99274.06
2022-08-17T05:34:22.748Z,99263.19
2022-08-17T05:37:12.138Z,99273.44
2022-08-17T05:40:00.409Z,99285.25
2022-08-17T05:42:48.658Z,99283.84
2022-08-17T05:45:55.907Z,99288.66
2022-08-17T05:48:47.320Z,99283.22
2022-08-17T05:52:09.118Z,99296.88
2022-08-17T05:55:11.939Z,99292.53
2022-08-17T05:58:14.596Z,99300.31
2022-08-17T06:01:08.641Z,99313.97
2022-08-17T06:04:05.363Z,99316.16
2022-08-17T06:07:00.328Z,99289.59
2022-08-17T06:09:54.517Z,99307.59
2022-08-17T06:12:56.975Z,99309.31
2022-08-17T06:18:47.178Z,99302.78
2022-08-17T06:21:39.000Z,99285.03
2022-08-17T06:24:34.103Z,99277.72
2022-08-17T06:27:30.191Z,99262.47
2022-08-17T06:30:24.650Z,99265.75
2022-08-17T06:33:21.796Z,99276.94
2022-08-17T06:36:26.498Z,99256.75
2022-08-17T06:39:26.536Z,99265.88
2022-08-17T06:43:06.180Z,99264.56
2022-08-17T06:45:40.011Z,99258.97
2022-08-17T06:48:38.689Z,99273.19
2022-08-17T06:51:31.696Z,99268.16
2022-08-17T06:54:27.335Z,99268.16
2022-08-17T06:57:20.018Z,99267.50
2022-08-17T07:00:13.739Z,99268.72
2022-08-17T07:03:11.097Z,99262.06
2022-08-17T07:06:02.018Z,99279.03
2022-08-17T07:08:54.911Z,99292.66
2022-08-17T07:11:52.841Z,99299.25
2022-08-17T07:14:51.452Z,99298.66
2022-08-17T07:17:47.272Z,99299.44
2022-08-17T07:20:43.313Z,99299.63
2022-08-17T07:23:42.928Z,99281.25
2022-08-17T07:26:30.969Z,99289.56
2022-08-17T07:29:20.070Z,99299.31
2022-08-17T07:32:09.487Z,99304.88
2022-08-17T07:35:11.143Z,99302.81
2022-08-17T07:38:24.183Z,99289.16
2022-08-17T07:41:14.616Z,99302.53
2022-08-17T07:44:02.871Z,99323.88
2022-08-17T07:47:22.665Z,99333.81
2022-08-17T07:50:27.411Z,99341.69
2022-08-17T07:53:23.196Z,99336.91
2022-08-17T07:56:11.289Z,99342.50
2022-08-17T07:59:08.478Z,99330.94
2022-08-17T08:02:26.449Z,99318.31
2022-08-17T08:05:44.284Z,99236.53
2022-08-17T08:08:37.811Z,99320.72
2022-08-17T08:11:35.482Z,99320.03
2022-08-17T08:14:29.285Z,99316.88
2022-08-17T08:17:25.240Z,99332.09
2022-08-17T08:20:37.761Z,99337.28
2022-08-17T08:23:37.088Z,99322.16
2022-08-17T08:26:32.672Z,99321.50
2022-08-17T08:29:30.608Z,99324.13
2022-08-17T08:32:29.160Z,99357.38
2022-08-17T08:35:26.679Z,99354.56
2022-08-17T08:38:28.191Z,99362.72
2022-08-17T08:41:30.402Z,99364.81
2022-08-17T08:44:59.981Z,99369.63
2022-08-17T08:48:05.903Z,99356.47
2022-08-17T08:51:09.676Z,99346.78
2022-08-17T08:54:07.691Z,99335.94
2022-08-17T09:00:15.816Z,99334.00
2022-08-17T09:03:36.731Z,99332.25
2022-08-17T09:06:46.218Z,99341.44
2022-08-17T09:09:47.400Z,99334.47
2022-08-17T09:12:44.509Z,99332.94
2022-08-17T09:15:39.805Z,99322.38
2022-08-17T09:19:00.011Z,99315.31
2022-08-17T09:21:47.922Z,99327.03
2022-08-17T09:24:41.328Z,99325.94
2022-08-17T09:27:34.364Z,99327.00
2022-08-17T09:30:24.937Z,99309.56
2022-08-17T09:33:16.935Z,99305.34
2022-08-17T09:36:10.988Z,99302.25
2022-08-17T09:39:03.472Z,99320.13
2022-08-17T09:41:57.119Z,99343.59
2022-08-17T09:44:53.125Z,99336.91
2022-08-17T09:47:50.625Z,99328.47
2022-08-17T09:51:04.074Z,99359.34
2022-08-17T09:53:54.210Z,99367.69
2022-08-17T09:57:18.101Z,99379.84
2022-08-17T10:00:17.869Z,99372.56
2022-08-17T10:03:22.020Z,99381.00
2022-08-17T10:06:21.757Z,99377.03
2022-08-17T10:09:18.725Z,99379.72
2022-08-17T10:12:20.384Z,99373.13
2022-08-17T10:15:23.351Z,99368.66
2022-08-17T10:18:31.786Z,99388.78
2022-08-17T10:21:41.463Z,99395.00
2022-08-17T10:25:21.539Z,99407.59
2022-08-17T10:28:00.753Z,99393.63
2022-08-17T10:31:05.465Z,99417.38
2022-08-17T10:34:21.623Z,99408.34
2022-08-17T10:37:28.245Z,99395.78
2022-08-17T10:40:24.613Z,99331.63
2022-08-17T10:43:29.211Z,99413.81
2022-08-17T10:46:30.967Z,99453.34
2022-08-17T10:49:29.347Z,99447.25
2022-08-17T10:52:48.646Z,99448.63
2022-08-17T10:55:36.693Z,99451.25
2022-08-17T10:58:28.457Z,99448.63
2022-08-17T11:01:17.581Z,99455.50
2022-08-17T11:04:21.614Z,99466.25
2022-08-17T11:07:22.885Z,99464.22
2022-08-17T11:10:26.533Z,99449.97
2022-08-17T11:13:28.850Z,99450.06
2022-08-17T11:16:41.205Z,99443.69
2022-08-17T11:19:46.975Z,99451.03
2022-08-17T11:23:14.572Z,99456.41
2022-08-17T11:26:18.375Z,99452.50
2022-08-17T11:29:17.417Z,99468.28
2022-08-17T11:32:13.312Z,99458.19
2022-08-17T11:35:11.947Z,99458.31
2022-08-17T11:38:19.446Z,99455.31
2022-08-17T11:41:19.710Z,99457.69
2022-08-17T11:44:32.834Z,99455.25
2022-08-17T11:48:02.559Z,99453.31
2022-08-17T11:51:24.426Z,99456.41
2022-08-17T11:54:38.239Z,99472.03
2022-08-17T11:58:06.443Z,99469.47
2022-08-17T12:00:57.836Z,99484.16
2022-08-17T12:03:54.329Z,99470.25
2022-08-17T12:06:49.257Z,99472.84
2022-08-17T12:09:44.876Z,99451.50
2022-08-17T12:12:35.690Z,99451.06
2022-08-17T12:15:30.904Z,99469.16
2022-08-17T12:18:24.469Z,99459.19
2022-08-17T12:21:38.780Z,99469.47
2022-08-17T12:24:47.137Z,99465.19
2022-08-17T12:27:56.834Z,99449.47
2022-08-17T12:30:52.140Z,99454.34
2022-08-17T12:33:44.581Z,99451.56
2022-08-17T12:36:33.854Z,99444.41
2022-08-17T12:39:25.183Z,99433.69
2022-08-17T12:42:23.169Z,99429.09
2022-08-17T12:45:24.403Z,99436.94
2022-08-17T12:48:14.546Z,99432.91
2022-08-17T12:51:07.750Z,99420.97
2022-08-17T12:53:56.271Z,99424.19
2022-08-17T12:56:47.669Z,99424.25
2022-08-17T12:59:42.609Z,99418.63
2022-08-17T13:02:45.024Z,99402.66
2022-08-17T13:05:35.951Z,99380.63
2022-08-17T13:08:28.661Z,99377.84
2022-08-17T13:11:21.694Z,99374.47
2022-08-17T13:14:11.187Z,99390.94
2022-08-17T13:17:08.343Z,99388.09
2022-08-17T13:19:59.766Z,99367.81
2022-08-17T13:22:54.474Z,99358.13
2022-08-17T13:25:42.464Z,99351.44
2022-08-17T13:28:36.220Z,99351.34
2022-08-17T13:31:49.222Z,99353.91
2022-08-17T13:34:51.363Z,99349.50
2022-08-17T13:38:01.218Z,99348.50
2022-08-17T13:40:53.056Z,99346.22
2022-08-17T13:43:45.970Z,99337.78
2022-08-17T13:46:35.322Z,99347.19
2022-08-17T13:49:23.922Z,99351.34
2022-08-17T13:52:32.982Z,99351.81
2022-08-17T13:55:23.667Z,99348.66
2022-08-17T13:58:11.707Z,99342.56
2022-08-17T14:01:20.019Z,99348.63
2022-08-17T14:04:10.725Z,99358.53
2022-08-17T14:07:01.952Z,99360.13
2022-08-17T14:09:54.726Z,99349.88
2022-08-17T14:12:44.718Z,99344.78
2022-08-17T14:15:55.427Z,99340.31
2022-08-17T14:18:56.549Z,99322.25
2022-08-17T14:21:47.465Z,99316.34
2022-08-17T14:24:44.863Z,99311.03
2022-08-17T14:27:51.935Z,99310.34
2022-08-17T14:30:43.055Z,99310.81
2022-08-17T14:33:31.164Z,99307.13
2022-08-17T14:36:19.186Z,99308.03
2022-08-17T14:39:07.296Z,99296.97
2022-08-17T14:41:58.195Z,99266.31
2022-08-17T14:44:47.565Z,99290.41
2022-08-17T14:47:36.726Z,99280.88
2022-08-17T14:50:24.759Z,99282.34
2022-08-17T14:53:15.736Z,99283.97
2022-08-17T14:56:04.146Z,99292.13
2022-08-17T14:58:52.831Z,99288.97
2022-08-17T15:01:42.250Z,99283.75
2022-08-17T15:04:30.355Z,99286.75
2022-08-17T15:07:19.048Z,99280.47
2022-08-17T15:10:08.883Z,99295.94
2022-08-17T15:12:58.263Z,99289.66
2022-08-17T15:15:46.290Z,99238.19
2022-08-17T15:18:36.066Z,99289.94
2022-08-17T15:21:24.106Z,99298.53
2022-08-17T15:24:12.069Z,99294.34
2022-08-17T15:27:00.139Z,99284.19
2022-08-17T15:29:48.120Z,99286.53
2022-08-17T15:32:40.587Z,99279.28
2022-08-17T15:35:32.574Z,99273.72
2022-08-17T15:38:21.763Z,99281.09
2022-08-17T15:41:14.924Z,99288.59
2022-08-17T15:44:02.931Z,99286.56
2022-08-17T15:46:51.227Z,99285.50
2022-08-17T15:49:40.414Z,99279.53
2022-08-17T15:52:30.697Z,99273.09
2022-08-17T15:55:23.968Z,99259.47
2022-08-17T15:58:12.664Z,99257.69
2022-08-17T16:01:18.384Z,99259.19
2022-08-17T16:04:26.810Z,99267.44
2022-08-17T16:07:17.471Z,99281.44
2022-08-17T16:10:07.764Z,99270.09
2022-08-17T16:12:55.775Z,99267.66
2022-08-17T16:15:43.864Z,99278.19
2022-08-17T16:18:32.594Z,99281.06
2022-08-17T16:21:27.038Z,99279.25
2022-08-17T16:24:15.194Z,99282.81
2022-08-17T16:27:12.590Z,99275.94
2022-08-17T16:30:00.971Z,99283.59
2022-08-17T16:32:51.620Z,99284.84
2022-08-17T16:35:42.073Z,99273.97
2022-08-17T16:38:30.152Z,99282.97
2022-08-17T16:41:32.436Z,99275.53
2022-08-17T16:44:22.793Z,99263.44
2022-08-17T16:47:10.835Z,99263.53
2022-08-17T16:49:59.057Z,99261.22
2022-08-17T16:52:48.416Z,99263.56
2022-08-17T16:55:36.653Z,99263.56
2022-08-17T16:58:24.733Z,99264.88
2022-08-17T17:01:15.760Z,99262.44
2022-08-17T17:04:07.096Z,99257.28
2022-08-17T17:07:03.859Z,99253.16
2022-08-17T17:09:55.346Z,99252.16
2022-08-17T17:13:01.985Z,99254.22
2022-08-17T17:15:57.714Z,99234.50
2022-08-17T17:18:59.870Z,99253.50
2022-08-17T17:21:52.818Z,99245.03
2022-08-17T17:24:50.292Z,99242.97
2022-08-17T17:27:43.713Z,99223.47
2022-08-17T17:30:43.601Z,99235.78
2022-08-17T17:33:38.531Z,99242.97
2022-08-17T17:36:35.557Z,99240.59
2022-08-17T17:39:31.868Z,99239.78
2022-08-17T17:42:23.220Z,99242.31
2022-08-17T17:45:19.540Z,99240.72
2022-08-17T17:48:07.710Z,99238.75
2022-08-17T17:51:07.051Z,99235.81
2022-08-17T17:54:01.961Z,99239.78
2022-08-17T17:56:58.586Z,99230.69
2022-08-17T17:59:55.421Z,99210.31
2022-08-17T18:02:56.486Z,99217.38
2022-08-17T18:05:58.179Z,99223.63
2022-08-17T18:09:02.841Z,99218.38
2022-08-17T18:12:08.969Z,99176.59
2022-08-17T18:15:11.278Z,99212.50
2022-08-17T18:18:22.546Z,99215.63
2022-08-17T18:21:16.844Z,99211.72
2022-08-17T18:24:08.829Z,99217.19
2022-08-17T18:26:59.235Z,99219.63
2022-08-17T18:29:48.646Z,99221.94
2022-08-17T18:32:41.294Z,99230.72
2022-08-17T18:35:35.115Z,99226.69
2022-08-17T18:38:28.752Z,99225.06
2022-08-17T18:41:26.071Z,99229.53
2022-08-17T18:44:25.780Z,99231.47
2022-08-17T18:47:16.471Z,99231.75
2022-08-17T18:50:23.653Z,99237.56
2022-08-17T18:53:26.545Z,99253.66
2022-08-17T18:56:31.279Z,99255.47
2022-08-17T18:59:27.928Z,99268.34
2022-08-17T19:02:44.758Z,99264.38
2022-08-17T19:05:37.814Z,99258.25
2022-08-17T19:08:34.395Z,99274.03
2022-08-17T19:11:28.233Z,99274.06
2022-08-17T19:14:20.115Z,99273.97
2022-08-17T19:17:12.479Z,99281.00
2022-08-17T19:20:05.750Z,99287.75
2022-08-17T19:23:04.782Z,99292.22
2022-08-17T19:25:55.634Z,99290.84
2022-08-17T19:28:50.424Z,99291.03
2022-08-17T19:31:39.928Z,99288.88
2022-08-17T19:34:33.984Z,99282.09
2022-08-17T19:37:33.916Z,99289.19
2022-08-17T19:40:52.492Z,99297.28
2022-08-17T19:43:55.427Z,99292.97
2022-08-17T19:47:00.893Z,99286.81
2022-08-17T19:50:01.066Z,99283.56
2022-08-17T19:52:57.883Z,99247.75
2022-08-17T19:55:54.784Z,99280.44
2022-08-17T19:58:53.441Z,99277.97
2022-08-17T20:01:50.100Z,99278.16
2022-08-17T20:04:43.613Z,99287.16
2022-08-17T20:07:43.129Z,99297.13
2022-08-17T20:10:39.610Z,99287.69
2022-08-17T20:13:41.843Z,99291.56
2022-08-17T20:16:30.316Z,99290.34
2022-08-17T20:19:25.102Z,99286.63
2022-08-17T20:22:21.919Z,99283.63
2022-08-17T20:25:17.106Z,99286.94
2022-08-17T20:28:24.705Z,99284.91
2022-08-17T20:31:41.394Z,99289.41
2022-08-17T20:34:38.080Z,99289.41
2022-08-17T20:37:31.722Z,99286.78
2022-08-17T20:40:29.922Z,99286.78
2022-08-17T20:43:46.477Z,99279.63
2022-08-17T20:46:56.357Z,99268.91
2022-08-17T20:49:55.765Z,99280.41
2022-08-17T20:52:51.690Z,99290.50
2022-08-17T20:55:54.691Z,99289.84
2022-08-17T20:58:47.682Z,99292.50
2022-08-17T21:01:39.507Z,99292.66
2022-08-17T21:05:00.091Z,99308.34
2022-08-17T21:07:57.885Z,99310.06
2022-08-17T21:10:47.853Z,99307.25
2022-08-17T21:14:01.793Z,99302.75
2022-08-17T21:17:06.714Z,99214.00
2022-08-17T21:20:17.152Z,99297.63
2022-08-17T21:23:20.672Z,99297.94
2022-08-17T21:26:23.636Z,99302.91
2022-08-17T21:29:31.358Z,99305.66
2022-08-17T21:32:29.158Z,99322.72
2022-08-17T21:35:28.351Z,99325.97
2022-08-17T21:38:20.720Z,99316.50
2022-08-17T21:41:20.023Z,99318.03
2022-08-17T21:44:22.019Z,99337.44
2022-08-17T21:47:19.290Z,99343.16
2022-08-17T21:50:18.593Z,99327.63
2022-08-17T21:53:08.716Z,99334.91
2022-08-17T21:55:58.108Z,99332.31
2022-08-17T21:58:48.563Z,99328.56
2022-08-17T22:01:39.900Z,99341.63
2022-08-17T22:04:31.122Z,99342.72
2022-08-17T22:07:35.951Z,99331.88
2022-08-17T22:10:34.522Z,99326.94
2022-08-17T22:13:29.726Z,99314.34
2022-08-17T22:16:29.382Z,99321.38
2022-08-17T22:19:18.720Z,99324.47
2022-08-17T22:22:09.659Z,99325.56
2022-08-17T22:24:59.883Z,99334.13
2022-08-17T22:27:52.049Z,99343.00
2022-08-17T22:30:43.175Z,99329.94
2022-08-17T22:33:39.586Z,99345.03
2022-08-17T22:36:29.655Z,99345.59
2022-08-17T22:39:41.606Z,99354.31
2022-08-17T22:42:29.687Z,99368.88
2022-08-17T22:45:18.008Z,99376.13
2022-08-17T22:48:07.472Z,99376.13
2022-08-17T22:51:12.650Z,99388.91
2022-08-17T22:54:21.739Z,99381.75
2022-08-17T22:57:32.229Z,99394.66
2022-08-17T23:00:38.344Z,99395.28
2022-08-17T23:03:28.167Z,99395.19
2022-08-17T23:06:16.271Z,99390.72
2022-08-17T23:09:06.863Z,99400.19
2022-08-17T23:11:58.491Z,99398.94
2022-08-17T23:14:49.304Z,99403.66
2022-08-17T23:17:38.809Z,99402.06
2022-08-17T23:20:28.178Z,99403.53
2022-08-17T23:23:18.743Z,99399.41
2022-08-17T23:26:11.287Z,99443.81
2022-08-17T23:28:59.964Z,99453.53
2022-08-17T23:31:49.154Z,99455.19
2022-08-17T23:34:38.313Z,99461.97
2022-08-17T23:37:28.360Z,99465.56
2022-08-17T23:40:16.635Z,99470.53
2022-08-17T23:43:11.425Z,99475.97
2022-08-17T23:46:13.042Z,99470.03
2022-08-17T23:49:01.176Z,99479.19
2022-08-17T23:51:50.257Z,99480.75
2022-08-17T23:54:43.574Z,99498.34
2022-08-17T23:57:33.693Z,99486.53
